createdAt,value
2017-07-26T00:00:34.613Z,1001.28
2017-07-26T00:01:34.600Z,1001.28
2017-07-26T00:02:34.579Z,1001.25
2017-07-26T00:03:34.564Z,1001.24
2017-07-26T00:04:34.549Z,1001.25
2017-07-26T00:05:34.533Z,1001.25
2017-07-26T00:06:34.519Z,1001.24
2017-07-26T00:07:34.500Z,1001.25
2017-07-26T00:08:34.481Z,1001.3
2017-07-26T00:09:34.468Z,1001.3
2017-07-26T00:10:34.451Z,1001.29
2017-07-26T00:11:34.437Z,1001.34
2017-07-26T00:12:34.418Z,1001.3
2017-07-26T00:13:34.401Z,1001.35
2017-07-26T00:14:34.392Z,1001.34
2017-07-26T00:15:34.368Z,1001.36
2017-07-26T00:16:34.356Z,1001.33
2017-07-26T00:17:34.339Z,1001.33
2017-07-26T00:18:34.320Z,1001.36
2017-07-26T00:19:34.310Z,1001.35
2017-07-26T00:20:34.286Z,1001.36
2017-07-26T00:21:34.273Z,1001.4
2017-07-26T00:22:34.258Z,1001.41
2017-07-26T00:23:34.240Z,1001.42
2017-07-26T00:24:34.223Z,1001.41
2017-07-26T00:25:34.211Z,1001.43
2017-07-26T00:26:34.189Z,1001.42
2017-07-26T00:27:34.174Z,1001.46
2017-07-26T00:28:34.160Z,1001.45
2017-07-26T00:29:34.145Z,1001.47
2017-07-26T00:30:34.129Z,1001.47
2017-07-26T00:31:34.110Z,1001.47
2017-07-26T00:32:34.108Z,1001.44
2017-07-26T00:33:34.078Z,1001.43
2017-07-26T00:34:34.071Z,1001.44
2017-07-26T00:35:34.051Z,1001.45
2017-07-26T00:36:34.028Z,1001.41
2017-07-26T00:37:34.016Z,1001.41
2017-07-26T00:38:34.000Z,1001.45
2017-07-26T00:39:33.989Z,1001.45
2017-07-26T00:40:33.971Z,1001.44
2017-07-26T00:41:33.948Z,1001.46
2017-07-26T00:42:33.932Z,1001.45
2017-07-26T00:43:33.922Z,1001.48
2017-07-26T00:44:33.909Z,1001.44
2017-07-26T00:45:33.889Z,1001.44
2017-07-26T00:46:33.868Z,1001.46
2017-07-26T00:47:33.860Z,1001.5
2017-07-26T00:48:33.838Z,1001.45
2017-07-26T00:49:33.820Z,1001.44
2017-07-26T00:50:33.805Z,1001.5
2017-07-26T00:51:33.789Z,1001.48
2017-07-26T00:52:33.772Z,1001.49
2017-07-26T00:53:33.759Z,1001.47
2017-07-26T00:54:33.740Z,1001.46
2017-07-26T00:55:33.730Z,1001.52
2017-07-26T00:56:33.709Z,1001.52
2017-07-26T00:57:33.698Z,1001.54
2017-07-26T00:58:33.681Z,1001.5
2017-07-26T00:59:33.662Z,1001.52
2017-07-26T01:00:33.649Z,1001.49
2017-07-26T01:01:33.638Z,1001.51
2017-07-26T01:02:33.617Z,1001.55
2017-07-26T01:03:33.596Z,1001.54
2017-07-26T01:04:33.583Z,1001.55
2017-07-26T01:05:33.567Z,1001.52
2017-07-26T01:06:33.555Z,1001.53
2017-07-26T01:07:33.532Z,1001.51
2017-07-26T01:08:33.521Z,1001.52
2017-07-26T01:09:33.500Z,1001.52
2017-07-26T01:10:33.488Z,1001.53
2017-07-26T01:11:33.467Z,1001.51
2017-07-26T01:12:33.460Z,1001.5
2017-07-26T01:13:33.438Z,1001.52
2017-07-26T01:14:33.420Z,1001.56
2017-07-26T01:15:33.410Z,1001.54
2017-07-26T01:16:33.390Z,1001.55
2017-07-26T01:17:33.373Z,1001.53
2017-07-26T01:18:33.354Z,1001.56
2017-07-26T01:19:33.339Z,1001.57
2017-07-26T01:20:33.332Z,1001.54
2017-07-26T01:21:33.305Z,1001.55
2017-07-26T01:22:33.290Z,1001.56
2017-07-26T01:23:33.276Z,1001.52
2017-07-26T01:24:33.260Z,1001.52
2017-07-26T01:25:33.243Z,1001.52
2017-07-26T01:26:33.226Z,1001.47
2017-07-26T01:27:33.210Z,1001.47
2017-07-26T01:28:33.194Z,1001.45
2017-07-26T01:29:33.177Z,1001.45
2017-07-26T01:30:33.165Z,1001.45
2017-07-26T01:31:33.148Z,1001.43
2017-07-26T01:32:33.130Z,1001.41
2017-07-26T01:33:33.114Z,1001.45
2017-07-26T01:34:33.100Z,1001.41
2017-07-26T01:35:33.085Z,1001.39
2017-07-26T01:36:33.071Z,1001.4
2017-07-26T01:37:33.050Z,1001.38
2017-07-26T01:38:33.037Z,1001.36
2017-07-26T01:39:33.026Z,1001.35
2017-07-26T01:40:33.004Z,1001.36
2017-07-26T01:41:32.990Z,1001.36
2017-07-26T01:42:32.970Z,1001.36
2017-07-26T01:43:32.955Z,1001.34
2017-07-26T01:44:32.942Z,1001.33
2017-07-26T01:45:32.930Z,1001.34
2017-07-26T01:46:32.909Z,1001.32
2017-07-26T01:47:32.891Z,1001.36
2017-07-26T01:48:32.876Z,1001.33
2017-07-26T01:49:32.858Z,1001.32
2017-07-26T01:50:32.841Z,1001.35
2017-07-26T01:51:32.829Z,1001.34
2017-07-26T01:52:32.809Z,1001.3
2017-07-26T01:53:32.798Z,1001.25
2017-07-26T01:54:32.776Z,1001.29
2017-07-26T01:55:32.763Z,1001.34
2017-07-26T01:56:32.748Z,1001.33
2017-07-26T01:57:32.732Z,1001.34
2017-07-26T01:58:32.715Z,1001.3
2017-07-26T01:59:32.701Z,1001.31
2017-07-26T02:00:32.685Z,1001.32
2017-07-26T02:01:32.669Z,1001.31
2017-07-26T02:02:32.648Z,1001.35
2017-07-26T02:03:32.631Z,1001.36
2017-07-26T02:04:32.624Z,1001.39
2017-07-26T02:05:32.607Z,1001.39
2017-07-26T02:06:32.584Z,1001.37
2017-07-26T02:07:32.568Z,1001.39
2017-07-26T02:08:32.560Z,1001.39
2017-07-26T02:09:32.541Z,1001.39
2017-07-26T02:10:32.528Z,1001.4
2017-07-26T02:11:32.513Z,1001.39
2017-07-26T02:12:32.490Z,1001.36
2017-07-26T02:13:32.474Z,1001.38
2017-07-26T02:14:32.459Z,1001.36
2017-07-26T02:15:32.446Z,1001.34
2017-07-26T02:16:32.427Z,1001.33
2017-07-26T02:17:32.411Z,1001.28
2017-07-26T02:18:32.395Z,1001.36
2017-07-26T02:19:32.379Z,1001.35
2017-07-26T02:20:32.362Z,1001.34
2017-07-26T02:21:32.349Z,1001.4
2017-07-26T02:22:32.333Z,1001.36
2017-07-26T02:23:32.318Z,1001.33
2017-07-26T02:24:32.301Z,1001.37
2017-07-26T02:25:32.290Z,1001.39
2017-07-26T02:26:32.269Z,1001.36
2017-07-26T02:27:32.250Z,1001.37
2017-07-26T02:28:32.241Z,1001.38
2017-07-26T02:29:32.223Z,1001.36
2017-07-26T02:30:32.210Z,1001.35
2017-07-26T02:31:32.189Z,1001.36
2017-07-26T02:32:32.172Z,1001.33
2017-07-26T02:33:32.159Z,1001.33
2017-07-26T02:34:32.140Z,1001.36
2017-07-26T02:35:32.126Z,1001.34
2017-07-26T02:36:32.109Z,1001.39
2017-07-26T02:37:32.099Z,1001.37
2017-07-26T02:38:32.079Z,1001.35
2017-07-26T02:39:32.061Z,1001.39
2017-07-26T02:40:32.049Z,1001.4
2017-07-26T02:41:32.030Z,1001.39
2017-07-26T02:42:32.012Z,1001.41
2017-07-26T02:43:32.006Z,1001.42
2017-07-26T02:44:31.980Z,1001.44
2017-07-26T02:45:31.963Z,1001.39
2017-07-26T02:46:31.947Z,1001.4
2017-07-26T02:47:31.931Z,1001.34
2017-07-26T02:48:31.918Z,1001.38
2017-07-26T02:49:31.899Z,1001.41
2017-07-26T02:50:31.890Z,1001.41
2017-07-26T02:51:31.869Z,1001.45
2017-07-26T02:52:31.853Z,1001.43
2017-07-26T02:53:31.837Z,1001.46
2017-07-26T02:54:31.823Z,1001.47
2017-07-26T02:55:31.810Z,1001.48
2017-07-26T02:56:31.790Z,1001.49
2017-07-26T02:57:31.779Z,1001.53
2017-07-26T02:58:31.760Z,1001.53
2017-07-26T02:59:31.743Z,1001.52
2017-07-26T03:00:31.729Z,1001.54
2017-07-26T03:01:31.710Z,1001.52
2017-07-26T03:02:31.697Z,1001.52
2017-07-26T03:03:31.679Z,1001.49
2017-07-26T03:04:31.667Z,1001.5
2017-07-26T03:05:31.653Z,1001.48
2017-07-26T03:06:31.630Z,1001.48
2017-07-26T03:07:31.617Z,1001.48
2017-07-26T03:08:31.600Z,1001.53
2017-07-26T03:09:31.586Z,1001.51
2017-07-26T03:10:31.569Z,1001.5
2017-07-26T03:11:31.554Z,1001.49
2017-07-26T03:12:31.535Z,1001.51
2017-07-26T03:13:31.521Z,1001.49
2017-07-26T03:14:31.513Z,1001.47
2017-07-26T03:15:31.488Z,1001.5
2017-07-26T03:16:31.478Z,1001.48
2017-07-26T03:17:31.461Z,1001.53
2017-07-26T03:18:31.440Z,1001.51
2017-07-26T03:19:31.428Z,1001.51
2017-07-26T03:20:31.410Z,1001.49
2017-07-26T03:21:31.401Z,1001.48
2017-07-26T03:22:31.380Z,1001.49
2017-07-26T03:23:31.359Z,1001.48
2017-07-26T03:24:31.350Z,1001.5
2017-07-26T03:25:31.328Z,1001.48
2017-07-26T03:26:31.321Z,1001.48
2017-07-26T03:27:31.298Z,1001.48
2017-07-26T03:28:31.287Z,1001.48
2017-07-26T03:29:31.263Z,1001.48
2017-07-26T03:30:31.248Z,1001.49
2017-07-26T03:31:31.240Z,1001.49
2017-07-26T03:32:31.222Z,1001.46
2017-07-26T03:33:31.206Z,1001.43
2017-07-26T03:34:31.188Z,1001.41
2017-07-26T03:35:31.171Z,1001.46
2017-07-26T03:36:31.160Z,1001.46
2017-07-26T03:37:31.142Z,1001.45
2017-07-26T03:38:31.131Z,1001.45
2017-07-26T03:39:31.110Z,1001.45
2017-07-26T03:40:31.094Z,1001.47
2017-07-26T03:41:31.081Z,1001.47
2017-07-26T03:42:31.060Z,1001.47
2017-07-26T03:43:31.050Z,1001.45
2017-07-26T03:44:31.031Z,1001.43
2017-07-26T03:45:31.009Z,1001.44
2017-07-26T03:46:30.999Z,1001.45
2017-07-26T03:47:30.977Z,1001.45
2017-07-26T03:48:30.967Z,1001.43
2017-07-26T03:49:30.945Z,1001.45
2017-07-26T03:50:30.928Z,1001.43
2017-07-26T03:51:30.912Z,1001.41
2017-07-26T03:52:30.898Z,1001.42
2017-07-26T03:53:30.880Z,1001.41
2017-07-26T03:54:30.870Z,1001.43
2017-07-26T03:55:30.849Z,1001.41
2017-07-26T03:56:30.837Z,1001.42
2017-07-26T03:57:30.819Z,1001.4
2017-07-26T03:58:30.809Z,1001.39
2017-07-26T03:59:30.786Z,1001.38
2017-07-26T04:00:30.780Z,1001.38
2017-07-26T04:01:30.756Z,1001.37
2017-07-26T04:02:30.738Z,1001.39
2017-07-26T04:03:30.726Z,1001.4
2017-07-26T04:04:30.709Z,1001.37
2017-07-26T04:05:30.693Z,1001.37
2017-07-26T04:06:30.673Z,1001.38
2017-07-26T04:07:30.709Z,1001.41
2017-07-26T04:08:30.647Z,1001.39
2017-07-26T04:09:30.631Z,1001.39
2017-07-26T04:10:30.610Z,1001.41
2017-07-26T04:11:30.600Z,1001.39
2017-07-26T04:12:30.579Z,1001.4
2017-07-26T04:13:30.619Z,1001.41
2017-07-26T04:14:30.545Z,1001.42
2017-07-26T04:15:30.530Z,1001.44
2017-07-26T04:16:30.518Z,1001.47
2017-07-26T04:17:30.507Z,1001.49
2017-07-26T04:18:30.486Z,1001.48
2017-07-26T04:19:30.475Z,1001.47
2017-07-26T04:20:30.448Z,1001.48
2017-07-26T04:21:30.439Z,1001.47
2017-07-26T04:22:30.417Z,1001.49
2017-07-26T04:23:30.411Z,1001.48
2017-07-26T04:24:30.388Z,1001.52
2017-07-26T04:25:30.371Z,1001.51
2017-07-26T04:26:30.358Z,1001.5
2017-07-26T04:27:30.338Z,1001.52
2017-07-26T04:28:30.331Z,1001.56
2017-07-26T04:29:30.311Z,1001.57
2017-07-26T04:30:30.288Z,1001.61
2017-07-26T04:31:30.282Z,1001.61
2017-07-26T04:32:30.259Z,1001.61
2017-07-26T04:33:30.243Z,1001.63
2017-07-26T04:34:30.227Z,1001.61
2017-07-26T04:35:30.208Z,1001.6
2017-07-26T04:36:30.193Z,1001.61
2017-07-26T04:37:30.177Z,1001.62
2017-07-26T04:38:30.170Z,1001.6
2017-07-26T04:39:30.149Z,1001.58
2017-07-26T04:40:30.129Z,1001.57
2017-07-26T04:41:30.121Z,1001.57
2017-07-26T04:42:30.099Z,1001.54
2017-07-26T04:43:30.081Z,1001.56
2017-07-26T04:44:30.067Z,1001.58
2017-07-26T04:45:30.049Z,1001.61
2017-07-26T04:46:30.035Z,1001.55
2017-07-26T04:47:30.021Z,1001.52
2017-07-26T04:48:30.003Z,1001.54
2017-07-26T04:49:29.993Z,1001.54
2017-07-26T04:50:29.971Z,1001.53
2017-07-26T04:51:29.958Z,1001.5
2017-07-26T04:52:29.939Z,1001.5
2017-07-26T04:53:29.929Z,1001.52
2017-07-26T04:54:29.910Z,1001.53
2017-07-26T04:55:29.891Z,1001.57
2017-07-26T04:56:29.878Z,1001.56
2017-07-26T04:57:29.859Z,1001.58
2017-07-26T04:58:29.851Z,1001.57
2017-07-26T04:59:29.829Z,1001.59
2017-07-26T05:00:29.809Z,1001.6
2017-07-26T05:01:29.794Z,1001.6
2017-07-26T05:02:29.782Z,1001.57
2017-07-26T05:03:29.769Z,1001.6
2017-07-26T05:04:29.746Z,1001.61
2017-07-26T05:05:29.732Z,1001.61
2017-07-26T05:06:29.728Z,1001.57
2017-07-26T05:07:29.699Z,1001.59
2017-07-26T05:08:29.682Z,1001.58
2017-07-26T05:09:29.671Z,1001.56
2017-07-26T05:10:29.651Z,1001.59
2017-07-26T05:11:29.648Z,1001.6
2017-07-26T05:12:29.621Z,1001.55
2017-07-26T05:13:29.610Z,1001.59
2017-07-26T05:14:29.585Z,1001.57
2017-07-26T05:15:29.580Z,1001.56
2017-07-26T05:16:29.557Z,1001.56
2017-07-26T05:17:29.540Z,1001.61
2017-07-26T05:18:29.524Z,1001.58
2017-07-26T05:19:29.508Z,1001.6
2017-07-26T05:20:29.497Z,1001.6
2017-07-26T05:21:29.478Z,1001.61
2017-07-26T05:22:29.457Z,1001.6
2017-07-26T05:23:29.443Z,1001.6
2017-07-26T05:24:29.427Z,1001.61
2017-07-26T05:25:29.414Z,1001.61
2017-07-26T05:26:29.411Z,1001.57
2017-07-26T05:27:29.378Z,1001.58
2017-07-26T05:28:29.369Z,1001.56
2017-07-26T05:29:29.350Z,1001.56
2017-07-26T05:30:29.341Z,1001.57
2017-07-26T05:31:29.319Z,1001.56
2017-07-26T05:32:29.308Z,1001.59
2017-07-26T05:33:29.290Z,1001.59
2017-07-26T05:34:29.270Z,1001.61
2017-07-26T05:35:29.258Z,1001.67
2017-07-26T05:36:29.239Z,1001.66
2017-07-26T05:37:29.220Z,1001.69
2017-07-26T05:38:29.209Z,1001.72
2017-07-26T05:39:29.198Z,1001.74
2017-07-26T05:40:29.179Z,1001.78
2017-07-26T05:41:29.159Z,1001.75
2017-07-26T05:42:29.148Z,1001.75
2017-07-26T05:43:29.130Z,1001.74
2017-07-26T05:44:29.118Z,1001.72
2017-07-26T05:45:29.099Z,1001.74
2017-07-26T05:46:29.077Z,1001.73
2017-07-26T05:47:29.069Z,1001.71
2017-07-26T05:48:29.049Z,1001.68
2017-07-26T05:49:29.032Z,1001.71
2017-07-26T05:50:29.018Z,1001.73
2017-07-26T05:51:29.001Z,1001.73
2017-07-26T05:52:28.984Z,1001.74
2017-07-26T05:53:28.969Z,1001.71
2017-07-26T05:54:28.957Z,1001.74
2017-07-26T05:55:28.935Z,1001.74
2017-07-26T05:56:28.926Z,1001.73
2017-07-26T05:57:28.909Z,1001.71
2017-07-26T05:58:28.892Z,1001.71
2017-07-26T05:59:28.879Z,1001.78
2017-07-26T06:00:28.869Z,1001.76
2017-07-26T06:01:28.851Z,1001.79
2017-07-26T06:02:28.840Z,1001.79
2017-07-26T06:03:28.817Z,1001.79
2017-07-26T06:04:28.809Z,1001.79
2017-07-26T06:05:28.790Z,1001.78
2017-07-26T06:06:28.806Z,1001.81
2017-07-26T06:07:28.761Z,1001.82
2017-07-26T06:08:28.745Z,1001.84
2017-07-26T06:09:28.730Z,1001.85
2017-07-26T06:10:28.714Z,1001.83
2017-07-26T06:11:28.700Z,1001.83
2017-07-26T06:12:28.685Z,1001.84
2017-07-26T06:13:28.671Z,1001.8
2017-07-26T06:14:28.752Z,1001.79
2017-07-26T06:15:28.642Z,1001.79
2017-07-26T06:16:28.625Z,1001.81
2017-07-26T06:17:28.609Z,1001.79
2017-07-26T06:18:28.591Z,1001.77
2017-07-26T06:19:28.581Z,1001.79
2017-07-26T06:20:28.661Z,1001.79
2017-07-26T06:21:28.549Z,1001.78
2017-07-26T06:22:28.581Z,1001.82
2017-07-26T06:23:28.521Z,1001.82
2017-07-26T06:24:28.500Z,1001.78
2017-07-26T06:25:28.489Z,1001.78
2017-07-26T06:26:28.524Z,1001.8
2017-07-26T06:27:28.460Z,1001.82
2017-07-26T06:28:28.451Z,1001.83
2017-07-26T06:29:28.435Z,1001.83
2017-07-26T06:30:28.417Z,1001.85
2017-07-26T06:31:28.399Z,1001.82
2017-07-26T06:32:28.390Z,1001.84
2017-07-26T06:33:28.373Z,1001.84
2017-07-26T06:34:28.365Z,1001.85
2017-07-26T06:35:28.343Z,1001.85
2017-07-26T06:36:28.330Z,1001.79
2017-07-26T06:37:28.316Z,1001.84
2017-07-26T06:38:28.299Z,1001.83
2017-07-26T06:39:28.284Z,1001.83
2017-07-26T06:40:28.277Z,1001.87
2017-07-26T06:41:28.256Z,1001.89
2017-07-26T06:42:28.245Z,1001.86
2017-07-26T06:43:28.233Z,1001.85
2017-07-26T06:44:28.217Z,1001.92
2017-07-26T06:45:28.200Z,1001.9
2017-07-26T06:46:28.197Z,1001.96
2017-07-26T06:47:28.177Z,1001.96
2017-07-26T06:48:28.159Z,1001.97
2017-07-26T06:49:28.146Z,1001.95
2017-07-26T06:50:28.129Z,1001.99
2017-07-26T06:51:28.115Z,1002.02
2017-07-26T06:52:28.105Z,1002
2017-07-26T06:53:28.100Z,1001.98
2017-07-26T06:54:28.071Z,1002.02
2017-07-26T06:55:28.060Z,1001.97
2017-07-26T06:56:28.046Z,1002.04
2017-07-26T06:57:28.028Z,1002.03
2017-07-26T06:58:28.020Z,1002.04
2017-07-26T06:59:28.006Z,1002.06
2017-07-26T07:00:27.988Z,1002.09
2017-07-26T07:01:27.974Z,1002.08
2017-07-26T07:02:27.966Z,1002.12
2017-07-26T07:03:27.958Z,1002.13
2017-07-26T07:04:27.937Z,1002.14
2017-07-26T07:05:27.918Z,1002.17
2017-07-26T07:06:27.903Z,1002.11
2017-07-26T07:07:27.897Z,1002.15
2017-07-26T07:08:27.879Z,1002.15
2017-07-26T07:09:27.865Z,1002.17
2017-07-26T07:10:27.850Z,1002.19
2017-07-26T07:11:27.839Z,1002.23
2017-07-26T07:12:27.830Z,1002.17
2017-07-26T07:13:27.809Z,1002.18
2017-07-26T07:14:27.794Z,1002.17
2017-07-26T07:15:27.780Z,1002.2
2017-07-26T07:16:27.769Z,1002.16
2017-07-26T07:17:27.757Z,1002.2
2017-07-26T07:18:27.739Z,1002.27
2017-07-26T07:19:27.723Z,1002.23
2017-07-26T07:20:27.716Z,1002.22
2017-07-26T07:21:27.699Z,1002.23
2017-07-26T07:22:27.684Z,1002.21
2017-07-26T07:23:27.668Z,1002.19
2017-07-26T07:24:27.656Z,1002.19
2017-07-26T07:25:27.641Z,1002.2
2017-07-26T07:26:27.629Z,1002.17
2017-07-26T07:27:27.616Z,1002.19
2017-07-26T07:28:27.600Z,1002.18
2017-07-26T07:29:27.586Z,1002.22
2017-07-26T07:30:27.578Z,1002.22
2017-07-26T07:31:27.558Z,1002.21
2017-07-26T07:32:27.544Z,1002.21
2017-07-26T07:33:27.539Z,1002.27
2017-07-26T07:34:27.520Z,1002.26
2017-07-26T07:35:27.505Z,1002.28
2017-07-26T07:36:27.489Z,1002.31
2017-07-26T07:37:27.481Z,1002.26
2017-07-26T07:38:27.465Z,1002.28
2017-07-26T07:39:27.453Z,1002.25
2017-07-26T07:40:27.440Z,1002.25
2017-07-26T07:41:27.427Z,1002.28
2017-07-26T07:42:27.411Z,1002.25
2017-07-26T07:43:27.402Z,1002.26
2017-07-26T07:44:27.386Z,1002.23
2017-07-26T07:45:27.371Z,1002.27
2017-07-26T07:46:27.359Z,1002.24
2017-07-26T07:47:27.350Z,1002.25
2017-07-26T07:48:27.332Z,1002.24
2017-07-26T07:49:27.318Z,1002.25
2017-07-26T07:50:27.309Z,1002.26
2017-07-26T07:51:27.300Z,1002.29
2017-07-26T07:52:27.287Z,1002.3
2017-07-26T07:53:27.268Z,1002.32
2017-07-26T07:54:27.259Z,1002.3
2017-07-26T07:55:27.249Z,1002.29
2017-07-26T07:56:27.228Z,1002.35
2017-07-26T07:57:27.221Z,1002.35
2017-07-26T07:58:27.209Z,1002.33
2017-07-26T07:59:27.193Z,1002.32
2017-07-26T08:00:27.178Z,1002.31
2017-07-26T08:01:27.169Z,1002.33
2017-07-26T08:02:27.159Z,1002.33
2017-07-26T08:03:27.148Z,1002.34
2017-07-26T08:04:27.127Z,1002.31
2017-07-26T08:05:27.115Z,1002.37
2017-07-26T08:06:27.110Z,1002.33
2017-07-26T08:07:27.092Z,1002.37
2017-07-26T08:08:27.079Z,1002.28
2017-07-26T08:09:27.075Z,1002.26
2017-07-26T08:10:27.060Z,1002.26
2017-07-26T08:11:27.050Z,1002.27
2017-07-26T08:12:27.036Z,1002.25
2017-07-26T08:13:27.020Z,1002.26
2017-07-26T08:14:27.011Z,1002.24
2017-07-26T08:15:26.999Z,1002.21
2017-07-26T08:16:26.983Z,1002.24
2017-07-26T08:17:26.978Z,1002.24
2017-07-26T08:18:26.957Z,1002.35
2017-07-26T08:19:26.950Z,1002.54
2017-07-26T08:20:26.940Z,1002.73
2017-07-26T08:21:26.923Z,1003
2017-07-26T08:22:26.919Z,1003.31
2017-07-26T08:23:26.906Z,1003.5
2017-07-26T08:24:26.897Z,1003.45
2017-07-26T08:25:26.881Z,1003.1
2017-07-26T08:26:26.871Z,1002.8
2017-07-26T08:27:26.859Z,1002.71
2017-07-26T08:28:26.848Z,1002.64
2017-07-26T08:29:26.835Z,1002.38
2017-07-26T08:30:26.828Z,1002.27
2017-07-26T08:31:26.829Z,1002.68
2017-07-26T08:32:26.803Z,1002.68
2017-07-26T08:33:26.800Z,1002.67
2017-07-26T08:34:26.791Z,1002.55
2017-07-26T08:35:26.779Z,1002.3
2017-07-26T08:36:26.765Z,1002.56
2017-07-26T08:37:26.758Z,1002.72
2017-07-26T08:38:26.747Z,1002.65
2017-07-26T08:39:26.739Z,1002.35
2017-07-26T08:40:26.836Z,1002.66
2017-07-26T08:41:26.729Z,1002.64
2017-07-26T08:42:26.722Z,1002.72
2017-07-26T08:43:26.712Z,1002.27
2017-07-26T08:44:26.701Z,1002.57
2017-07-26T08:45:26.690Z,1002.62
2017-07-26T08:46:26.733Z,1002.61
2017-07-26T08:47:26.680Z,1002.57
2017-07-26T08:48:26.668Z,1002.63
2017-07-26T08:49:26.667Z,1002.45
2017-07-26T08:50:26.709Z,1002.58
2017-07-26T08:51:26.649Z,1002.49
2017-07-26T08:52:26.647Z,1002.54
2017-07-26T08:53:26.636Z,1002.61
2017-07-26T08:54:26.639Z,1002.47
2017-07-26T08:55:26.628Z,1002.61
2017-07-26T08:56:26.619Z,1002.65
2017-07-26T08:57:26.619Z,1002.6
2017-07-26T08:58:26.610Z,1002.59
2017-07-26T08:59:26.613Z,1002.58
2017-07-26T09:00:26.609Z,1002.57
2017-07-26T09:01:26.601Z,1002.55
2017-07-26T09:02:26.600Z,1002.58
2017-07-26T09:03:26.591Z,1002.61
2017-07-26T09:04:26.590Z,1002.6
2017-07-26T09:05:26.586Z,1002.59
2017-07-26T09:06:26.591Z,1002.36
2017-07-26T09:07:26.586Z,1002.43
2017-07-26T09:08:26.584Z,1002.41
2017-07-26T09:09:26.581Z,1002.38
2017-07-26T09:10:26.579Z,1002.48
2017-07-26T09:11:26.573Z,1002.46
2017-07-26T09:12:26.570Z,1002.51
2017-07-26T09:13:26.563Z,1002.49
2017-07-26T09:14:26.560Z,1002.49
2017-07-26T09:15:26.562Z,1002.52
2017-07-26T09:16:26.560Z,1002.52
2017-07-26T09:17:26.561Z,1002.37
2017-07-26T09:18:26.549Z,1002.39
2017-07-26T09:19:26.645Z,1002.55
2017-07-26T09:20:26.539Z,1002.52
2017-07-26T09:21:26.549Z,1002.52
2017-07-26T09:22:26.536Z,1002.53
2017-07-26T09:23:26.538Z,1002.58
2017-07-26T09:24:26.533Z,1002.37
2017-07-26T09:25:26.533Z,1002.32
2017-07-26T09:26:26.534Z,1002.33
2017-07-26T09:27:26.525Z,1002.6
2017-07-26T09:28:26.520Z,1002.54
2017-07-26T09:29:26.517Z,1002.58
2017-07-26T09:30:26.518Z,1002.56
2017-07-26T09:31:26.523Z,1002.58
2017-07-26T09:32:26.510Z,1002.58
2017-07-26T09:33:26.508Z,1002.38
2017-07-26T09:34:26.505Z,1002.33
2017-07-26T09:35:26.504Z,1002.42
2017-07-26T09:36:26.505Z,1002.52
2017-07-26T09:37:26.501Z,1002.49
2017-07-26T09:38:26.500Z,1002.31
2017-07-26T09:39:26.488Z,1002.34
2017-07-26T09:40:26.489Z,1002.36
2017-07-26T09:41:26.490Z,1002.39
2017-07-26T09:42:26.482Z,1002.39
2017-07-26T09:43:26.477Z,1002.48
2017-07-26T09:44:26.581Z,1002.43
2017-07-26T09:45:26.469Z,1002.36
2017-07-26T09:46:26.466Z,1002.43
2017-07-26T09:47:26.461Z,1002.36
2017-07-26T09:48:26.458Z,1002.39
2017-07-26T09:49:26.450Z,1002.56
2017-07-26T09:50:26.501Z,1002.53
2017-07-26T09:51:26.442Z,1002.63
2017-07-26T09:52:26.437Z,1002.57
2017-07-26T09:53:26.431Z,1002.61
2017-07-26T09:54:26.428Z,1002.59
2017-07-26T09:55:26.427Z,1002.59
2017-07-26T09:56:26.419Z,1002.57
2017-07-26T09:57:26.416Z,1002.64
2017-07-26T09:58:26.409Z,1002.63
2017-07-26T09:59:26.414Z,1002.63
2017-07-26T10:00:26.400Z,1002.58
2017-07-26T10:01:26.400Z,1002.57
2017-07-26T10:02:26.396Z,1002.57
2017-07-26T10:03:26.391Z,1002.54
2017-07-26T10:04:26.406Z,1002.59
2017-07-26T10:05:26.389Z,1002.62
2017-07-26T10:06:26.381Z,1002.55
2017-07-26T10:07:26.380Z,1002.59
2017-07-26T10:08:26.381Z,1002.54
2017-07-26T10:09:26.372Z,1002.53
2017-07-26T10:10:26.373Z,1002.54
2017-07-26T10:11:26.360Z,1002.5
2017-07-26T10:12:26.369Z,1002.55
2017-07-26T10:13:26.358Z,1002.47
2017-07-26T10:14:26.355Z,1002.5
2017-07-26T10:15:26.356Z,1002.5
2017-07-26T10:16:26.349Z,1002.51
2017-07-26T10:17:26.341Z,1002.51
2017-07-26T10:18:26.337Z,1002.54
2017-07-26T10:19:26.394Z,1002.5
2017-07-26T10:20:26.331Z,1002.55
2017-07-26T10:21:26.320Z,1002.58
2017-07-26T10:22:26.312Z,1002.59
2017-07-26T10:23:26.309Z,1002.54
2017-07-26T10:24:26.299Z,1002.57
2017-07-26T10:25:26.293Z,1002.61
2017-07-26T10:26:26.290Z,1002.61
2017-07-26T10:27:26.343Z,1002.57
2017-07-26T10:28:26.279Z,1002.59
2017-07-26T10:29:26.271Z,1002.59
2017-07-26T10:30:26.268Z,1002.53
2017-07-26T10:31:26.257Z,1002.58
2017-07-26T10:32:26.255Z,1002.56
2017-07-26T10:33:26.252Z,1002.67
2017-07-26T10:34:26.238Z,1002.57
2017-07-26T10:35:26.239Z,1002.62
2017-07-26T10:36:26.223Z,1002.66
2017-07-26T10:37:26.218Z,1002.64
2017-07-26T10:38:26.219Z,1002.61
2017-07-26T10:39:26.203Z,1002.64
2017-07-26T10:40:26.201Z,1002.59
2017-07-26T10:41:26.198Z,1002.65
2017-07-26T10:42:26.192Z,1002.6
2017-07-26T10:43:26.177Z,1002.61
2017-07-26T10:44:26.174Z,1002.61
2017-07-26T10:45:26.168Z,1002.56
2017-07-26T10:46:26.158Z,1002.58
2017-07-26T10:47:26.161Z,1002.65
2017-07-26T10:48:26.149Z,1002.66
2017-07-26T10:49:26.140Z,1002.62
2017-07-26T10:50:26.142Z,1002.65
2017-07-26T10:51:26.128Z,1002.67
2017-07-26T10:52:26.131Z,1002.63
2017-07-26T10:53:26.117Z,1002.57
2017-07-26T10:54:26.106Z,1002.6
2017-07-26T10:55:26.099Z,1002.61
2017-07-26T10:56:26.091Z,1002.61
2017-07-26T10:57:26.081Z,1002.6
2017-07-26T10:58:26.079Z,1002.61
2017-07-26T10:59:26.069Z,1002.61
2017-07-26T11:00:26.058Z,1002.6
2017-07-26T11:01:26.049Z,1002.6
2017-07-26T11:02:26.049Z,1002.64
2017-07-26T11:03:26.039Z,1002.64
2017-07-26T11:04:26.031Z,1002.62
2017-07-26T11:05:26.020Z,1002.63
2017-07-26T11:06:26.010Z,1002.6
2017-07-26T11:07:26.002Z,1002.56
2017-07-26T11:08:25.999Z,1002.55
2017-07-26T11:09:25.988Z,1002.55
2017-07-26T11:10:25.979Z,1002.54
2017-07-26T11:11:25.970Z,1002.58
2017-07-26T11:12:25.970Z,1002.59
2017-07-26T11:13:25.954Z,1002.58
2017-07-26T11:14:25.948Z,1002.64
2017-07-26T11:15:25.938Z,1002.58
2017-07-26T11:16:25.940Z,1002.56
2017-07-26T11:17:25.932Z,1002.56
2017-07-26T11:18:25.920Z,1002.55
2017-07-26T11:19:25.910Z,1002.53
2017-07-26T11:20:25.903Z,1002.5
2017-07-26T11:21:25.899Z,1002.51
2017-07-26T11:22:25.889Z,1002.47
2017-07-26T11:23:25.899Z,1002.47
2017-07-26T11:24:25.881Z,1002.48
2017-07-26T11:25:25.866Z,1002.49
2017-07-26T11:26:25.859Z,1002.45
2017-07-26T11:27:25.850Z,1002.49
2017-07-26T11:28:25.839Z,1002.44
2017-07-26T11:29:25.832Z,1002.48
2017-07-26T11:30:25.831Z,1002.45
2017-07-26T11:31:25.816Z,1002.46
2017-07-26T11:32:25.806Z,1002.41
2017-07-26T11:33:25.806Z,1002.41
2017-07-26T11:34:25.798Z,1002.46
2017-07-26T11:35:25.789Z,1002.44
2017-07-26T11:36:25.780Z,1002.45
2017-07-26T11:37:25.769Z,1002.5
2017-07-26T11:38:25.769Z,1002.46
2017-07-26T11:39:25.760Z,1002.48
2017-07-26T11:40:25.750Z,1002.46
2017-07-26T11:41:25.746Z,1002.46
2017-07-26T11:42:25.741Z,1002.47
2017-07-26T11:43:25.725Z,1002.45
2017-07-26T11:44:25.719Z,1002.41
2017-07-26T11:45:25.714Z,1002.4
2017-07-26T11:46:25.702Z,1002.38
2017-07-26T11:47:25.699Z,1002.38
2017-07-26T11:48:25.688Z,1002.34
2017-07-26T11:49:25.684Z,1002.36
2017-07-26T11:50:25.684Z,1002.35
2017-07-26T11:51:25.668Z,1002.34
2017-07-26T11:52:25.680Z,1002.29
2017-07-26T11:53:25.650Z,1002.3
2017-07-26T11:54:25.649Z,1002.31
2017-07-26T11:55:25.638Z,1002.33
2017-07-26T11:56:25.631Z,1002.33
2017-07-26T11:57:25.630Z,1002.31
2017-07-26T11:58:25.621Z,1002.28
2017-07-26T11:59:25.607Z,1002.37
2017-07-26T12:00:25.598Z,1002.27
2017-07-26T12:01:25.591Z,1002.24
2017-07-26T12:02:25.586Z,1002.23
2017-07-26T12:03:25.578Z,1002.25
2017-07-26T12:04:25.571Z,1002.2
2017-07-26T12:05:25.560Z,1002.29
2017-07-26T12:06:25.559Z,1002.32
2017-07-26T12:07:25.549Z,1002.27